Time;durP1;ratioP1;P1;durP2;ratioP2;P2;SDS_P1;SDS_P2;PMS_P1;PMS_P2;Temp;Humidity;BMP_temperature;BMP_pressure;BME280_temperature;BME280_humidity;BME280_pressure;Samples;Min_cycle;Max_cycle;Signal;HPM_P1;HPM_P2
2023/09/13 03:32:56;;;;;;;5.40;4.50;;;18.60;99.90;;;;;;5030186;22;20854;-68
2023/09/13 03:35:23;;;;;;;4.93;4.43;;;18.60;99.90;;;;;;5012344;28;20457;-68
2023/09/13 03:37:50;;;;;;;5.37;4.87;;;18.60;99.90;;;;;;5011841;28;20465;-68
2023/09/13 03:40:17;;;;;;;4.20;3.80;;;18.60;99.90;;;;;;5012007;28;20457;-67
2023/09/13 03:42:43;;;;;;;5.80;4.97;;;18.60;99.90;;;;;;5011445;28;20484;-68
2023/09/13 03:45:12;;;;;;;5.30;4.67;;;18.50;99.90;;;;;;5005173;28;20449;-68
2023/09/13 03:47:39;;;;;;;6.97;5.20;;;18.50;99.90;;;;;;5012156;28;20523;-67
2023/09/13 03:50:08;;;;;;;5.27;4.30;;;18.50;99.90;;;;;;5010912;28;20465;-68
2023/09/13 03:52:35;;;;;;;4.30;3.90;;;18.60;99.90;;;;;;5011389;28;20478;-67
2023/09/13 03:55:02;;;;;;;7.17;4.70;;;18.50;99.90;;;;;;5011510;28;20469;-67
2023/09/13 03:57:29;;;;;;;7.40;4.40;;;18.50;99.90;;;;;;5012093;28;20480;-67
2023/09/13 03:59:56;;;;;;;4.70;4.27;;;18.50;99.90;;;;;;5011542;28;20469;-67
2023/09/13 04:02:23;;;;;;;5.83;4.40;;;18.50;99.90;;;;;;5009249;28;20489;-67
2023/09/13 04:04:49;;;;;;;5.50;4.33;;;18.50;99.90;;;;;;5011385;28;20461;-67
2023/09/13 04:07:17;;;;;;;5.43;4.90;;;18.50;99.90;;;;;;5011860;28;20461;-67
2023/09/13 04:09:44;;;;;;;4.77;3.80;;;18.50;99.90;;;;;;5011835;28;20457;-68
2023/09/13 04:12:11;;;;;;;4.67;4.27;;;18.50;99.90;;;;;;5010896;28;20855;-67
2023/09/13 04:14:37;;;;;;;5.47;4.80;;;18.40;99.90;;;;;;5011660;28;20561;-67
2023/09/13 04:17:04;;;;;;;4.57;4.13;;;18.40;99.90;;;;;;5010211;28;20468;-67
2023/09/13 04:19:31;;;;;;;4.37;3.97;;;18.40;99.90;;;;;;5011687;28;20479;-68
2023/09/13 04:21:58;;;;;;;5.43;4.77;;;18.40;99.90;;;;;;5010602;28;20499;-70
2023/09/13 04:24:26;;;;;;;5.23;4.70;;;18.40;99.90;;;;;;5011696;28;20842;-69
2023/09/13 04:26:53;;;;;;;5.13;4.10;;;18.40;99.90;;;;;;5011056;28;20461;-70
2023/09/13 04:29:19;;;;;;;5.13;4.63;;;18.40;99.90;;;;;;5011420;28;20466;-70
2023/09/13 04:31:46;;;;;;;6.90;4.83;;;18.40;99.90;;;;;;5010417;28;20990;-68
2023/09/13 04:34:13;;;;;;;4.70;4.20;;;18.30;99.90;;;;;;5006952;28;20564;-68
2023/09/13 04:36:39;;;;;;;5.73;4.33;;;18.30;99.90;;;;;;5001374;28;20457;-68
2023/09/13 04:39:06;;;;;;;4.83;4.27;;;18.30;99.90;;;;;;5010947;28;20469;-68
2023/09/13 04:41:34;;;;;;;5.30;4.33;;;18.30;99.90;;;;;;5010878;28;21040;-72
2023/09/13 04:44:01;;;;;;;4.73;4.20;;;18.20;99.90;;;;;;5010304;28;21038;-72
2023/09/13 04:46:28;;;;;;;5.07;4.67;;;18.20;99.90;;;;;;5011027;28;20520;-71
2023/09/13 04:48:55;;;;;;;5.60;5.00;;;18.20;99.90;;;;;;5010738;28;20492;-68
2023/09/13 04:51:22;;;;;;;4.73;4.27;;;18.20;99.90;;;;;;5010881;28;20480;-68
2023/09/13 04:53:48;;;;;;;5.00;4.50;;;18.20;99.90;;;;;;5010712;28;20458;-68
2023/09/13 04:56:15;;;;;;;4.80;4.30;;;18.20;99.90;;;;;;5010968;28;20853;-69
2023/09/13 04:58:43;;;;;;;4.27;3.87;;;18.20;99.90;;;;;;5011047;28;20461;-67
2023/09/13 05:01:10;;;;;;;7.43;4.47;;;18.20;99.90;;;;;;5012227;28;20989;-71
2023/09/13 05:03:37;;;;;;;4.63;4.20;;;18.20;99.90;;;;;;5014523;28;20457;-71
2023/09/13 05:06:04;;;;;;;4.83;4.33;;;18.20;99.90;;;;;;5012800;28;20516;-71
2023/09/13 05:08:30;;;;;;;4.63;4.23;;;18.20;99.90;;;;;;5015186;28;20560;-71
2023/09/13 05:10:57;;;;;;;4.30;3.90;;;18.20;99.90;;;;;;5014635;28;20482;-71
2023/09/13 05:13:24;;;;;;;8.27;4.80;;;18.20;99.90;;;;;;5014520;28;20464;-72
2023/09/13 05:15:52;;;;;;;6.23;4.57;;;18.20;99.90;;;;;;5014991;28;20489;-66
2023/09/13 05:18:19;;;;;;;4.90;4.50;;;18.20;99.90;;;;;;5015052;28;20454;-67
2023/09/13 05:20:45;;;;;;;4.53;4.13;;;18.20;99.90;;;;;;5014753;28;20858;-67
2023/09/13 05:23:12;;;;;;;4.47;4.07;;;18.20;99.90;;;;;;5013472;28;20545;-67
2023/09/13 05:25:44;;;;;;;4.57;4.13;;;18.20;99.90;;;;;;5013677;28;20462;-67
2023/09/13 05:28:12;;;;;;;5.73;4.57;;;18.20;99.90;;;;;;5013664;28;20461;-71
2023/09/13 05:30:39;;;;;;;6.07;5.00;;;18.20;99.90;;;;;;5013917;28;20481;-71
2023/09/13 05:33:07;;;;;;;4.60;4.10;;;18.20;99.90;;;;;;5013724;28;20892;-71
2023/09/13 05:35:34;;;;;;;4.97;4.47;;;18.20;99.90;;;;;;5015009;28;20461;-70
2023/09/13 05:38:01;;;;;;;6.03;4.40;;;18.30;99.90;;;;;;5014991;28;20469;-70
2023/09/13 05:40:29;;;;;;;5.30;4.90;;;18.30;99.90;;;;;;5014500;28;20838;-70
2023/09/13 05:42:56;;;;;;;5.90;4.73;;;18.30;99.90;;;;;;5015025;28;20539;-71
2023/09/13 05:45:24;;;;;;;6.07;4.90;;;18.30;99.90;;;;;;5015612;28;20472;-70
2023/09/13 05:47:51;;;;;;;6.27;4.90;;;18.40;99.90;;;;;;5017756;28;20472;-70
2023/09/13 05:50:19;;;;;;;5.40;4.90;;;18.40;99.90;;;;;;5014711;28;20527;-69
2023/09/13 05:52:46;;;;;;;6.30;5.37;;;18.40;99.90;;;;;;5013569;28;20457;-72
2023/09/13 05:55:12;;;;;;;4.67;4.20;;;18.40;99.90;;;;;;5014084;28;20466;-67
2023/09/13 05:57:39;;;;;;;4.80;4.40;;;18.40;99.90;;;;;;5014355;28;20465;-66
2023/09/13 06:00:08;;;;;;;6.33;4.53;;;18.40;99.90;;;;;;5014129;28;20463;-66
2023/09/13 06:02:35;;;;;;;4.77;4.37;;;18.40;99.90;;;;;;5015316;28;20978;-66
2023/09/13 06:05:02;;;;;;;4.80;4.30;;;18.40;99.90;;;;;;5014407;28;20462;-69
2023/09/13 06:07:30;;;;;;;7.80;5.07;;;18.40;99.90;;;;;;5014238;28;20619;-69
2023/09/13 06:10:00;;;;;;;4.40;4.00;;;18.40;99.90;;;;;;5013932;28;20457;-69
2023/09/13 06:12:27;;;;;;;4.90;4.40;;;18.40;99.90;;;;;;5012674;28;20486;-67
2023/09/13 06:14:55;;;;;;;4.50;4.10;;;18.40;99.90;;;;;;5013756;28;20487;-67
2023/09/13 06:17:23;;;;;;;4.50;3.90;;;18.50;99.90;;;;;;5013952;28;20536;-69
2023/09/13 06:19:50;;;;;;;5.77;3.90;;;18.40;99.90;;;;;;5016112;28;20469;-69
2023/09/13 06:22:17;;;;;;;5.20;4.70;;;18.40;99.90;;;;;;5013627;28;20497;-69
2023/09/13 06:24:46;;;;;;;4.20;3.80;;;18.50;99.90;;;;;;5013669;28;20547;-69
2023/09/13 06:27:12;;;;;;;4.40;3.80;;;18.50;99.90;;;;;;5014873;28;20465;-67
2023/09/13 06:29:39;;;;;;;4.60;4.20;;;18.50;99.90;;;;;;5013773;28;20461;-68
2023/09/13 06:32:07;;;;;;;4.80;4.30;;;18.50;99.90;;;;;;5012935;28;20585;-67
2023/09/13 06:34:34;;;;;;;4.40;4.00;;;18.50;99.90;;;;;;5013546;28;20465;-67
2023/09/13 06:37:02;;;;;;;4.53;4.13;;;18.50;99.90;;;;;;5013225;28;20458;-66
2023/09/13 06:39:29;;;;;;;4.73;3.83;;;18.50;99.90;;;;;;5013440;28;20731;-66
2023/09/13 06:41:57;;;;;;;12.23;4.27;;;18.50;99.90;;;;;;5012533;28;20493;-66
2023/09/13 06:44:23;;;;;;;5.10;4.57;;;18.50;99.90;;;;;;5013036;28;20485;-70
2023/09/13 06:46:50;;;;;;;4.37;3.77;;;18.60;99.90;;;;;;5012916;28;20472;-70
2023/09/13 06:49:17;;;;;;;4.93;4.10;;;18.60;99.90;;;;;;5013156;28;20461;-65
2023/09/13 06:51:44;;;;;;;4.90;4.33;;;18.70;99.90;;;;;;5013063;28;20489;-66
2023/09/13 06:54:11;;;;;;;5.60;4.50;;;18.80;99.90;;;;;;5012346;28;20835;-69
2023/09/13 06:56:37;;;;;;;4.40;3.73;;;18.90;99.90;;;;;;5012949;28;20970;-68
2023/09/13 06:59:05;;;;;;;5.67;4.57;;;18.90;99.90;;;;;;5009715;28;20565;-69
2023/09/13 07:01:32;;;;;;;4.30;3.90;;;19.00;99.90;;;;;;5013194;28;20854;-69
2023/09/13 07:03:59;;;;;;;4.77;4.10;;;19.00;99.90;;;;;;5012492;28;20466;-71
2023/09/13 07:06:27;;;;;;;5.13;4.63;;;19.00;99.90;;;;;;5013001;28;20465;-70
2023/09/13 07:08:53;;;;;;;4.57;4.17;;;19.10;99.90;;;;;;5012766;28;20493;-70
2023/09/13 07:11:20;;;;;;;4.20;3.70;;;19.10;99.90;;;;;;5012512;28;21017;-71
2023/09/13 07:13:47;;;;;;;4.97;4.10;;;19.10;99.90;;;;;;5012077;28;20499;-71
2023/09/13 07:16:15;;;;;;;4.80;4.40;;;19.10;99.90;;;;;;5012664;28;20470;-71
2023/09/13 07:18:42;;;;;;;5.07;4.37;;;19.10;99.90;;;;;;5013254;28;20466;-71
2023/09/13 07:21:09;;;;;;;5.10;3.97;;;19.10;99.90;;;;;;5013124;28;20518;-65
2023/09/13 07:23:35;;;;;;;5.53;5.03;;;19.10;99.90;;;;;;5012414;28;20496;-70
2023/09/13 07:26:02;;;;;;;5.33;4.83;;;19.10;99.90;;;;;;5132593;22;20459;-67
2023/09/13 07:28:30;;;;;;;6.43;4.47;;;19.10;99.90;;;;;;5013011;28;20458;-70
2023/09/13 07:30:56;;;;;;;4.70;4.30;;;19.10;99.90;;;;;;5007784;28;21075;-71
2023/09/13 07:33:23;;;;;;;6.33;4.20;;;19.10;99.90;;;;;;4992166;28;20466;-70
2023/09/13 07:35:50;;;;;;;12.20;5.10;;;19.10;99.90;;;;;;4993486;28;20525;-69
2023/09/13 07:38:17;;;;;;;5.07;4.60;;;19.10;99.90;;;;;;4994993;28;20458;-71
2023/09/13 07:40:44;;;;;;;5.10;4.07;;;19.10;99.90;;;;;;4995153;28;20482;-70
2023/09/13 07:43:10;;;;;;;5.80;4.67;;;19.10;99.90;;;;;;4989444;28;20495;-69
2023/09/13 07:45:37;;;;;;;5.40;4.60;;;19.10;99.90;;;;;;4992973;28;20466;-67
2023/09/13 07:48:04;;;;;;;5.73;4.87;;;19.10;99.90;;;;;;4988878;28;20470;-67
2023/09/13 07:50:34;;;;;;;6.20;4.70;;;19.10;99.90;;;;;;4995612;28;20466;-66
2023/09/13 07:53:01;;;;;;;4.57;4.17;;;19.20;99.90;;;;;;4989483;28;20559;-66
2023/09/13 07:55:27;;;;;;;3.73;3.43;;;19.20;99.90;;;;;;4991706;28;20466;-66
2023/09/13 07:57:54;;;;;;;4.97;4.47;;;19.20;99.90;;;;;;4992271;28;20850;-66
2023/09/13 08:00:21;;;;;;;4.70;4.30;;;19.30;99.90;;;;;;4993676;28;20570;-70
2023/09/13 08:02:48;;;;;;;5.00;4.50;;;19.30;99.90;;;;;;4992768;28;20482;-69
2023/09/13 08:05:15;;;;;;;5.87;5.30;;;19.30;99.90;;;;;;4990574;28;20459;-71
2023/09/13 08:07:44;;;;;;;4.93;4.43;;;19.30;99.90;;;;;;4994638;28;20462;-72
2023/09/13 08:10:11;;;;;;;5.23;4.30;;;19.30;99.90;;;;;;4988464;28;20463;-71
2023/09/13 08:12:38;;;;;;;6.63;4.00;;;19.40;99.90;;;;;;4991447;28;21008;-71
2023/09/13 08:15:05;;;;;;;4.73;4.27;;;19.40;99.90;;;;;;4987539;28;20840;-72
2023/09/13 08:17:33;;;;;;;4.17;3.77;;;19.40;99.90;;;;;;4994540;28;20466;-67
2023/09/13 08:20:00;;;;;;;3.63;3.33;;;19.40;99.90;;;;;;4989095;28;20815;-68
2023/09/13 08:22:26;;;;;;;3.73;3.30;;;19.50;99.90;;;;;;4989685;28;20499;-67
2023/09/13 08:24:55;;;;;;;4.10;3.70;;;19.50;99.90;;;;;;4991248;28;20463;-67
2023/09/13 08:27:21;;;;;;;4.10;3.60;;;19.60;99.90;;;;;;4992219;28;20468;-68
2023/09/13 08:29:48;;;;;;;4.00;3.60;;;19.60;99.90;;;;;;4991798;28;20545;-67
2023/09/13 08:32:15;;;;;;;4.23;3.80;;;19.50;99.90;;;;;;4987393;28;20495;-68
2023/09/13 08:34:42;;;;;;;3.80;3.40;;;19.60;99.90;;;;;;4990648;28;20462;-67
2023/09/13 08:37:08;;;;;;;3.93;3.20;;;19.50;99.90;;;;;;4990538;28;20467;-70
2023/09/13 08:39:35;;;;;;;5.00;3.90;;;19.50;99.90;;;;;;4993515;28;20473;-68
2023/09/13 08:42:03;;;;;;;3.87;3.47;;;19.50;99.90;;;;;;4986994;28;20517;-67
2023/09/13 08:44:31;;;;;;;3.47;3.17;;;19.50;99.90;;;;;;4989431;28;20471;-67
2023/09/13 08:46:59;;;;;;;3.80;3.33;;;19.50;99.90;;;;;;4990335;28;20466;-67
2023/09/13 08:49:26;;;;;;;3.97;3.53;;;19.40;99.90;;;;;;4991824;28;20457;-67
2023/09/13 08:51:54;;;;;;;3.47;3.17;;;19.40;99.90;;;;;;4989490;28;20487;-66
2023/09/13 08:54:22;;;;;;;3.63;3.30;;;19.40;99.90;;;;;;4987443;28;20472;-66
2023/09/13 08:56:49;;;;;;;3.40;3.07;;;19.40;99.90;;;;;;4986477;28;20469;-69
2023/09/13 08:59:17;;;;;;;3.37;3.07;;;19.30;99.90;;;;;;4989840;28;20560;-66
2023/09/13 09:01:48;;;;;;;3.10;2.90;;;19.30;99.90;;;;;;4991413;28;20899;-68
2023/09/13 09:04:16;;;;;;;6.20;3.63;;;19.30;99.90;;;;;;4986170;28;20487;-69
2023/09/13 09:06:43;;;;;;;3.50;3.20;;;19.30;99.90;;;;;;4986995;28;20471;-69
2023/09/13 09:09:11;;;;;;;3.50;3.13;;;19.30;99.90;;;;;;4989654;28;20470;-66
2023/09/13 09:11:42;;;;;;;4.50;3.20;;;19.30;99.90;;;;;;4992160;28;20572;-67
2023/09/13 09:14:11;;;;;;;3.00;2.70;;;19.30;99.90;;;;;;4984736;28;20463;-68
2023/09/13 09:16:41;;;;;;;3.57;3.10;;;19.30;99.90;;;;;;4992310;28;20461;-68
2023/09/13 09:19:08;;;;;;;3.97;3.57;;;19.30;99.90;;;;;;4984544;28;20463;-67
2023/09/13 09:21:35;;;;;;;3.37;2.73;;;19.30;99.90;;;;;;4991370;28;20487;-68
2023/09/13 09:24:02;;;;;;;3.50;3.20;;;19.30;99.90;;;;;;4985383;28;20519;-70
2023/09/13 09:26:28;;;;;;;3.17;2.87;;;19.30;99.90;;;;;;4986893;28;20479;-70
2023/09/13 09:28:55;;;;;;;5.97;3.63;;;19.30;99.90;;;;;;4988786;28;20467;-67
2023/09/13 09:31:25;;;;;;;4.03;3.47;;;19.30;99.90;;;;;;4982049;28;20488;-68
2023/09/13 09:34:02;;;;;;;5.53;3.30;;;19.30;99.90;;;;;;4988169;28;20492;-68
2023/09/13 09:36:34;;;;;;;3.57;3.27;;;19.30;99.90;;;;;;4990076;28;20473;-68
2023/09/13 09:39:01;;;;;;;3.17;2.87;;;19.40;99.90;;;;;;4985782;28;20469;-68
2023/09/13 09:41:33;;;;;;;3.40;3.10;;;19.30;99.90;;;;;;4987057;28;20548;-68
2023/09/13 09:44:00;;;;;;;3.13;2.83;;;19.30;99.90;;;;;;4985555;28;20520;-72
2023/09/13 09:46:27;;;;;;;3.63;3.00;;;19.30;99.90;;;;;;4987669;28;20897;-66
2023/09/13 09:48:56;;;;;;;3.10;2.70;;;19.30;99.90;;;;;;4990733;28;20458;-67
2023/09/13 09:51:23;;;;;;;3.43;3.00;;;19.30;99.90;;;;;;4992078;28;20506;-66
2023/09/13 09:53:51;;;;;;;3.27;2.97;;;19.30;99.90;;;;;;4991145;28;20458;-69
2023/09/13 09:56:18;;;;;;;3.70;3.20;;;19.40;99.90;;;;;;4998107;28;20949;-68
2023/09/13 09:58:47;;;;;;;2.87;2.67;;;19.30;99.90;;;;;;4991316;28;20466;-68
2023/09/13 10:01:16;;;;;;;3.10;2.80;;;19.30;99.90;;;;;;4990822;28;20483;-66
2023/09/13 10:03:43;;;;;;;2.87;2.67;;;19.30;99.90;;;;;;4992425;28;20491;-67
2023/09/13 10:06:14;;;;;;;3.77;2.90;;;19.30;99.90;;;;;;4985763;28;20944;-69
2023/09/13 10:08:43;;;;;;;3.40;2.67;;;19.30;99.90;;;;;;4992703;28;20457;-69
2023/09/13 10:11:11;;;;;;;3.50;3.03;;;19.30;99.90;;;;;;4985809;28;20550;-69
2023/09/13 10:13:38;;;;;;;3.03;2.83;;;19.40;99.90;;;;;;4991689;28;20490;-69
2023/09/13 10:16:07;;;;;;;3.60;3.30;;;19.40;99.90;;;;;;4984677;28;20458;-70
2023/09/13 10:18:38;;;;;;;4.07;3.00;;;19.40;99.90;;;;;;4985929;28;20470;-69
2023/09/13 10:21:07;;;;;;;2.87;2.67;;;19.50;99.90;;;;;;4990913;28;20510;-70
2023/09/13 10:23:39;;;;;;;2.90;2.70;;;19.40;99.90;;;;;;4986642;28;20518;-66
2023/09/13 10:26:09;;;;;;;3.17;2.70;;;19.40;99.90;;;;;;4984441;28;20471;-67
2023/09/13 10:28:38;;;;;;;3.77;3.30;;;19.40;99.90;;;;;;4991844;28;21018;-66
2023/09/13 10:31:09;;;;;;;2.87;2.40;;;19.40;99.90;;;;;;4983353;28;20478;-66
2023/09/13 10:33:39;;;;;;;4.03;2.83;;;19.50;99.90;;;;;;4991146;28;20493;-67
2023/09/13 10:36:11;;;;;;;2.93;2.60;;;19.50;99.90;;;;;;4984160;28;20468;-66
2023/09/13 10:38:49;;;;;;;4.17;3.10;;;19.50;99.90;;;;;;4991510;28;20837;-66
2023/09/13 10:41:18;;;;;;;5.70;4.13;;;19.50;99.90;;;;;;4984855;28;20486;-66
2023/09/13 10:43:48;;;;;;;4.20;2.90;;;19.50;99.90;;;;;;4989936;28;20855;-66
2023/09/13 10:46:16;;;;;;;4.27;3.37;;;19.50;99.90;;;;;;4984628;28;20468;-66
2023/09/13 10:48:45;;;;;;;3.50;3.20;;;19.60;99.90;;;;;;4990572;28;20467;-66
2023/09/13 10:51:13;;;;;;;3.50;3.20;;;19.60;99.90;;;;;;4983863;28;20577;-66
2023/09/13 10:53:45;;;;;;;3.57;3.27;;;19.60;99.90;;;;;;4990121;28;20510;-66
2023/09/13 10:56:15;;;;;;;4.13;3.50;;;19.60;99.90;;;;;;4987408;28;20465;-67
2023/09/13 10:58:44;;;;;;;4.40;2.97;;;19.70;99.90;;;;;;4989800;28;20463;-66
2023/09/13 11:01:12;;;;;;;3.73;3.43;;;19.70;99.90;;;;;;4988308;28;20486;-66
2023/09/13 11:03:40;;;;;;;3.97;2.77;;;19.70;99.90;;;;;;4989853;28;20487;-66
2023/09/13 11:06:08;;;;;;;3.10;2.80;;;19.80;99.90;;;;;;4985142;28;20475;-66
2023/09/13 11:08:34;;;;;;;4.20;3.30;;;19.90;99.90;;;;;;4987116;28;20470;-66
2023/09/13 11:11:18;;;;;;;3.60;2.90;;;20.00;99.90;;;;;;4985441;28;20496;-66
2023/09/13 11:13:45;;;;;;;3.73;2.97;;;20.10;99.90;;;;;;4985767;28;20497;-66
2023/09/13 11:16:14;;;;;;;3.50;3.00;;;20.10;99.90;;;;;;4987747;28;20470;-66
2023/09/13 11:18:47;;;;;;;4.57;3.10;;;20.20;99.90;;;;;;4986617;28;21043;-66
2023/09/13 11:21:21;;;;;;;3.17;2.93;;;20.30;99.90;;;;;;4987688;28;20486;-66
2023/09/13 11:23:52;;;;;;;3.20;2.90;;;20.30;99.90;;;;;;4986571;28;20491;-66
2023/09/13 11:26:44;;;;;;;3.67;3.20;;;20.40;99.90;;;;;;4985084;28;20479;-66
2023/09/13 11:29:24;;;;;;;3.53;2.83;;;20.40;99.90;;;;;;4981544;28;20518;-66
2023/09/13 11:31:58;;;;;;;3.20;2.90;;;20.40;99.90;;;;;;4986612;28;20482;-66
2023/09/13 11:34:25;;;;;;;3.40;3.10;;;20.50;99.90;;;;;;4983845;28;20457;-66
2023/09/13 11:36:55;;;;;;;3.03;2.60;;;20.50;99.90;;;;;;4985765;28;20841;-66
2023/09/13 11:39:22;;;;;;;4.10;3.60;;;20.60;99.90;;;;;;4983567;28;20468;-66
2023/09/13 11:41:53;;;;;;;3.40;3.10;;;20.60;99.90;;;;;;4988031;28;20489;-66
2023/09/13 11:44:21;;;;;;;3.50;3.20;;;20.70;99.90;;;;;;4986322;28;20904;-66
2023/09/13 11:46:49;;;;;;;3.70;3.30;;;20.70;99.90;;;;;;4986624;28;20470;-69
2023/09/13 11:49:20;;;;;;;3.40;3.07;;;20.80;99.90;;;;;;4983426;28;20505;-70
2023/09/13 11:51:52;;;;;;;3.33;2.90;;;20.90;99.90;;;;;;4986094;28;20543;-70
2023/09/13 11:54:19;;;;;;;3.63;3.27;;;21.00;99.90;;;;;;4981216;28;20808;-70
2023/09/13 11:56:46;;;;;;;2.63;2.43;;;21.10;99.90;;;;;;4986346;28;20873;-71
2023/09/13 11:59:14;;;;;;;2.93;2.60;;;21.10;99.90;;;;;;4980202;28;20466;-66
2023/09/13 12:01:45;;;;;;;4.53;3.23;;;21.10;99.90;;;;;;4986584;28;20870;-66
2023/09/13 12:04:13;;;;;;;3.83;3.43;;;21.20;99.90;;;;;;4982413;28;20493;-70
2023/09/13 12:06:45;;;;;;;3.00;2.70;;;21.10;99.90;;;;;;4984285;28;20527;-69
2023/09/13 12:09:14;;;;;;;3.47;3.17;;;21.10;99.90;;;;;;4979330;28;20912;-70
2023/09/13 12:11:40;;;;;;;3.10;2.77;;;21.20;99.90;;;;;;4985081;28;20493;-69
2023/09/13 12:14:10;;;;;;;2.67;2.47;;;21.20;99.90;;;;;;4982045;28;20548;-70
2023/09/13 12:16:38;;;;;;;3.20;2.90;;;21.30;99.90;;;;;;4982665;28;20905;-70
2023/09/13 12:19:06;;;;;;;3.30;2.97;;;21.50;99.90;;;;;;4987521;28;20467;-69
2023/09/13 12:21:35;;;;;;;2.70;2.37;;;21.70;99.90;;;;;;4981347;28;20492;-69
2023/09/13 12:24:02;;;;;;;4.00;3.00;;;22.10;99.90;;;;;;4984609;28;20997;-69
2023/09/13 12:26:29;;;;;;;2.97;2.67;;;22.40;99.90;;;;;;4983737;28;20483;-69
2023/09/13 12:28:56;;;;;;;2.87;2.67;;;22.70;99.90;;;;;;4983902;28;20465;-69
2023/09/13 12:31:24;;;;;;;3.87;3.20;;;22.80;99.90;;;;;;4990406;28;20848;-69
2023/09/13 12:33:52;;;;;;;3.33;2.80;;;22.80;99.90;;;;;;4984168;28;20556;-68
2023/09/13 12:36:19;;;;;;;3.40;2.87;;;22.70;99.90;;;;;;4991111;28;20466;-68
2023/09/13 12:38:48;;;;;;;6.10;3.10;;;22.50;99.90;;;;;;4990230;28;20455;-68
2023/09/13 12:41:17;;;;;;;2.73;2.50;;;22.30;99.90;;;;;;4991492;28;20486;-69
2023/09/13 12:43:45;;;;;;;3.10;2.80;;;22.20;99.90;;;;;;4989348;28;21029;-69
2023/09/13 12:46:14;;;;;;;3.23;2.90;;;22.10;99.90;;;;;;4990565;28;20463;-69
2023/09/13 12:48:42;;;;;;;3.30;3.00;;;22.00;99.90;;;;;;4991560;28;20559;-69
2023/09/13 12:51:10;;;;;;;3.53;3.00;;;21.90;99.90;;;;;;4991406;28;20486;-69
2023/09/13 12:53:38;;;;;;;3.23;2.87;;;21.90;99.90;;;;;;4991149;28;20462;-69
2023/09/13 12:56:09;;;;;;;3.67;3.13;;;21.90;99.90;;;;;;4983521;28;20458;-67
2023/09/13 12:58:47;;;;;;;3.20;2.90;;;21.90;99.90;;;;;;4991387;28;20458;-69
2023/09/13 13:01:13;;;;;;;3.40;3.10;;;21.90;99.90;;;;;;4991116;28;20485;-68
2023/09/13 13:03:55;;;;;;;4.83;3.20;;;22.00;99.90;;;;;;4990656;28;20493;-69
2023/09/13 13:06:23;;;;;;;3.10;2.80;;;22.20;99.90;;;;;;4991104;28;20466;-69
2023/09/13 13:08:50;;;;;;;3.07;2.77;;;22.20;99.90;;;;;;4986603;28;20467;-66
2023/09/13 13:11:17;;;;;;;2.97;2.67;;;22.30;99.90;;;;;;4985469;28;21296;-66
2023/09/13 13:13:45;;;;;;;5.30;3.20;;;22.30;99.90;;;;;;4987279;28;20492;-67
2023/09/13 13:16:16;;;;;;;3.13;2.83;;;22.30;99.90;;;;;;4978196;28;20537;-66
2023/09/13 13:18:48;;;;;;;3.20;2.90;;;22.30;99.90;;;;;;5004223;28;20488;-67
2023/09/13 13:21:15;;;;;;;4.40;2.50;;;22.40;99.90;;;;;;4998471;28;20494;-66
2023/09/13 13:23:44;;;;;;;3.00;2.70;;;22.60;99.90;;;;;;4983951;28;20491;-65
2023/09/13 13:26:11;;;;;;;2.77;2.50;;;22.90;99.90;;;;;;4998020;28;20465;-66
2023/09/13 13:28:38;;;;;;;4.30;3.00;;;22.90;99.90;;;;;;4998317;28;20465;-65
2023/09/13 13:31:06;;;;;;;2.77;2.57;;;22.90;99.90;;;;;;4993961;28;20478;-66
2023/09/13 13:33:32;;;;;;;2.60;2.40;;;22.80;99.90;;;;;;4987898;28;20466;-66
2023/09/13 13:35:59;;;;;;;3.23;2.93;;;22.70;99.90;;;;;;4994039;28;20489;-66
2023/09/13 13:38:26;;;;;;;2.40;2.20;;;22.50;99.90;;;;;;5002160;28;20462;-66
2023/09/13 13:41:03;;;;;;;3.33;2.67;;;22.40;99.90;;;;;;5003271;28;20478;-68
2023/09/13 13:43:30;;;;;;;3.60;3.07;;;22.30;99.90;;;;;;4998165;28;20653;-69
2023/09/13 13:45:57;;;;;;;3.43;2.67;;;22.20;99.90;;;;;;5001256;28;20857;-68
2023/09/13 13:48:24;;;;;;;3.27;2.97;;;22.20;99.90;;;;;;5001550;28;20967;-68
2023/09/13 13:50:50;;;;;;;2.70;2.50;;;22.30;99.90;;;;;;5002224;28;20486;-69
2023/09/13 13:53:19;;;;;;;3.13;2.90;;;22.30;99.90;;;;;;4999683;28;20462;-69
2023/09/13 13:55:46;;;;;;;2.70;2.43;;;22.20;99.90;;;;;;5001417;28;20466;-69
2023/09/13 13:58:15;;;;;;;4.37;2.47;;;22.20;99.90;;;;;;5004071;28;20470;-68
2023/09/13 14:00:45;;;;;;;3.23;2.70;;;22.20;99.90;;;;;;5003876;28;20477;-68
2023/09/13 14:03:12;;;;;;;3.00;2.70;;;22.20;99.90;;;;;;4991433;28;20474;-70
2023/09/13 14:05:40;;;;;;;2.53;2.33;;;22.20;99.90;;;;;;4993913;28;20494;-67
2023/09/13 14:08:11;;;;;;;2.93;2.60;;;22.20;99.90;;;;;;5000500;28;20906;-71
2023/09/13 14:10:40;;;;;;;2.50;2.30;;;22.10;99.90;;;;;;5000636;28;20492;-66
2023/09/13 14:13:07;;;;;;;2.70;2.50;;;22.10;99.90;;;;;;5002599;28;20462;-65
2023/09/13 14:15:38;;;;;;;3.00;2.80;;;22.00;99.90;;;;;;5004184;28;20495;-65
2023/09/13 14:18:06;;;;;;;2.93;2.67;;;22.10;99.90;;;;;;5002116;28;20845;-67
2023/09/13 14:20:33;;;;;;;3.10;2.80;;;22.10;99.90;;;;;;5003586;28;20984;-67
2023/09/13 14:23:01;;;;;;;3.57;2.90;;;22.20;99.90;;;;;;4999030;28;20467;-65
2023/09/13 14:25:28;;;;;;;3.63;3.20;;;22.40;99.90;;;;;;5000067;28;20516;-65
2023/09/13 14:27:54;;;;;;;3.03;2.73;;;22.40;99.90;;;;;;5000745;28;20478;-65
2023/09/13 14:30:21;;;;;;;3.30;3.00;;;22.50;99.90;;;;;;5003142;28;20473;-65
2023/09/13 14:32:50;;;;;;;2.87;2.67;;;22.50;99.90;;;;;;4999648;28;20465;-65
2023/09/13 14:35:17;;;;;;;3.00;2.53;;;22.40;99.90;;;;;;4995856;28;20474;-65
2023/09/13 14:37:44;;;;;;;3.30;3.00;;;22.20;99.90;;;;;;4998683;28;20466;-65
2023/09/13 14:40:11;;;;;;;3.40;3.10;;;22.20;99.90;;;;;;5004186;28;20470;-67
2023/09/13 14:42:38;;;;;;;4.07;3.07;;;22.20;99.90;;;;;;5002017;28;21067;-65
2023/09/13 14:45:06;;;;;;;3.20;2.90;;;22.10;99.90;;;;;;4999596;28;20569;-65
2023/09/13 14:47:45;;;;;;;3.13;2.83;;;22.00;99.90;;;;;;5003159;28;20462;-67
2023/09/13 14:50:14;;;;;;;2.60;2.40;;;21.90;99.90;;;;;;5001787;28;20921;-67
2023/09/13 14:52:41;;;;;;;3.47;3.17;;;21.80;99.90;;;;;;5001893;28;20833;-67
2023/09/13 14:55:11;;;;;;;2.57;2.37;;;21.80;99.90;;;;;;4999698;28;20470;-67
2023/09/13 14:57:38;;;;;;;3.00;2.63;;;21.80;99.90;;;;;;5001356;28;20482;-67
2023/09/13 15:00:08;;;;;;;4.17;2.70;;;21.80;99.90;;;;;;4998529;28;20465;-66
2023/09/13 15:02:36;;;;;;;3.20;2.90;;;21.80;99.90;;;;;;5001720;28;20497;-65
2023/09/13 15:05:03;;;;;;;2.80;2.53;;;21.70;99.90;;;;;;4996571;28;20483;-66
2023/09/13 15:07:31;;;;;;;2.93;2.63;;;21.70;99.90;;;;;;4998054;28;20521;-66
2023/09/13 15:09:58;;;;;;;2.53;2.33;;;21.70;99.90;;;;;;4998902;28;20477;-66
2023/09/13 15:12:25;;;;;;;3.20;2.90;;;21.60;99.90;;;;;;5000869;28;21076;-66
2023/09/13 15:14:51;;;;;;;3.03;2.83;;;21.60;99.90;;;;;;4998134;28;20468;-66
2023/09/13 15:17:18;;;;;;;3.67;3.37;;;21.60;99.90;;;;;;4997488;28;20478;-67
2023/09/13 15:19:45;;;;;;;9.47;3.70;;;21.70;99.90;;;;;;4997718;28;20473;-65
2023/09/13 15:22:12;;;;;;;3.90;3.47;;;21.70;99.90;;;;;;4999964;28;20526;-65
2023/09/13 15:24:40;;;;;;;4.27;2.70;;;21.70;99.90;;;;;;5000759;28;20481;-65
2023/09/13 15:27:06;;;;;;;3.77;3.33;;;21.70;99.90;;;;;;4997471;28;20462;-65
2023/09/13 15:29:33;;;;;;;3.80;3.50;;;21.80;99.90;;;;;;4999555;28;20464;-65
2023/09/13 15:32:00;;;;;;;2.87;2.60;;;21.80;99.90;;;;;;4994530;28;20494;-65
2023/09/13 15:34:27;;;;;;;3.50;3.20;;;21.90;99.90;;;;;;4998573;28;20460;-65
2023/09/13 15:36:54;;;;;;;4.20;3.27;;;21.80;99.90;;;;;;4994794;28;20870;-64
2023/09/13 15:39:21;;;;;;;3.23;2.93;;;21.70;99.90;;;;;;4996979;28;20541;-65
2023/09/13 15:41:49;;;;;;;4.20;3.80;;;21.60;99.90;;;;;;4996582;28;20537;-65
2023/09/13 15:44:16;;;;;;;3.70;3.40;;;21.60;99.90;;;;;;4999461;28;21215;-65
2023/09/13 15:46:48;;;;;;;2.80;2.60;;;21.50;99.90;;;;;;4998487;28;20537;-65
2023/09/13 15:49:21;;;;;;;4.03;3.17;;;21.40;99.90;;;;;;4991625;28;20472;-64
2023/09/13 15:51:48;;;;;;;5.17;3.93;;;21.40;99.90;;;;;;4997270;28;20520;-65
2023/09/13 15:54:15;;;;;;;3.40;3.10;;;21.50;99.90;;;;;;4997765;28;20918;-65
2023/09/13 15:56:41;;;;;;;3.40;3.10;;;21.50;99.90;;;;;;4996164;28;20469;-65
2023/09/13 15:59:09;;;;;;;3.00;2.70;;;21.60;99.90;;;;;;4997477;28;20469;-64
2023/09/13 16:01:36;;;;;;;3.47;3.17;;;21.80;99.90;;;;;;4999012;28;20485;-65
2023/09/13 16:04:03;;;;;;;3.57;3.27;;;22.00;99.90;;;;;;4993161;28;20474;-65
2023/09/13 16:06:30;;;;;;;3.67;3.37;;;22.10;99.90;;;;;;4995726;28;20482;-64
2023/09/13 16:08:57;;;;;;;4.27;3.87;;;22.10;99.90;;;;;;4994315;28;20491;-64
2023/09/13 16:11:23;;;;;;;3.40;2.90;;;22.10;99.90;;;;;;4995059;28;20485;-65
2023/09/13 16:13:50;;;;;;;5.50;3.90;;;22.00;99.90;;;;;;4995328;28;20462;-65
2023/09/13 16:16:18;;;;;;;3.63;3.33;;;21.90;99.90;;;;;;4997937;28;20834;-65
2023/09/13 16:18:45;;;;;;;3.20;2.90;;;21.70;99.90;;;;;;4996900;28;20480;-65
2023/09/13 16:21:11;;;;;;;4.27;3.30;;;21.60;99.90;;;;;;4993680;28;21007;-65
2023/09/13 16:23:38;;;;;;;3.40;3.17;;;21.50;99.90;;;;;;4994754;28;20462;-65